sensor_id;sensor_type;location;lat;lon;timestamp;pressure;altitude;pressure_sealevel;temperature;humidity
2192;BME280;1102;49.718;11.902;2022-10-16T00:00:57;96215.41;;;13.26;100.00
2192;BME280;1102;49.718;11.902;2022-10-16T00:03:24;96217.44;;;13.33;100.00
2192;BME280;1102;49.718;11.902;2022-10-16T00:05:59;96205.03;;;13.21;100.00
2192;BME280;1102;49.718;11.902;2022-10-16T00:08:27;96220.19;;;13.37;100.00
2192;BME280;1102;49.718;11.902;2022-10-16T00:11:03;96224.47;;;13.41;100.00
2192;BME280;1102;49.718;11.902;2022-10-16T00:13:31;96076.09;;;12.34;100.00
2192;BME280;1102;49.718;11.902;2022-10-16T00:15:59;96225.31;;;13.45;100.00
2192;BME280;1102;49.718;11.902;2022-10-16T00:18:27;96239.56;;;13.37;100.00
2192;BME280;1102;49.718;11.902;2022-10-16T00:20:54;96184.94;;;13.05;100.00
2192;BME280;1102;49.718;11.902;2022-10-16T00:23:26;96232.63;;;13.32;100.00
2192;BME280;1102;49.718;11.902;2022-10-16T00:26:02;96237.03;;;13.44;100.00
2192;BME280;1102;49.718;11.902;2022-10-16T00:28:30;96247.31;;;13.46;100.00
2192;BME280;1102;49.718;11.902;2022-10-16T00:30:57;96207.19;;;13.16;100.00
2192;BME280;1102;49.718;11.902;2022-10-16T00:33:24;96237.31;;;13.39;100.00
2192;BME280;1102;49.718;11.902;2022-10-16T00:35:50;96201.03;;;13.12;100.00
2192;BME280;1102;49.718;11.902;2022-10-16T00:38:17;96211.38;;;13.17;100.00
2192;BME280;1102;49.718;11.902;2022-10-16T00:40:44;96200.63;;;13.10;100.00
2192;BME280;1102;49.718;11.902;2022-10-16T00:46:26;96216.78;;;13.20;100.00
2192;BME280;1102;49.718;11.902;2022-10-16T00:49:00;96208.31;;;13.15;100.00
2192;BME280;1102;49.718;11.902;2022-10-16T00:51:40;96220.22;;;13.21;100.00
2192;BME280;1102;49.718;11.902;2022-10-16T00:54:11;96208.47;;;13.06;100.00
2192;BME280;1102;49.718;11.902;2022-10-16T00:56:40;96209.84;;;13.16;100.00
2192;BME280;1102;49.718;11.902;2022-10-16T00:59:15;96224.09;;;13.23;100.00
2192;BME280;1102;49.718;11.902;2022-10-16T01:01:42;96213.63;;;13.15;100.00
2192;BME280;1102;49.718;11.902;2022-10-16T01:04:09;96187.09;;;12.99;100.00
2192;BME280;1102;49.718;11.902;2022-10-16T01:12:15;96234.25;;;13.37;100.00
2192;BME280;1102;49.718;11.902;2022-10-16T01:14:53;96219.69;;;13.15;100.00
2192;BME280;1102;49.718;11.902;2022-10-16T01:20:10;96193.53;;;12.82;100.00
2192;BME280;1102;49.718;11.902;2022-10-16T01:25:59;96231.44;;;12.98;100.00
2192;BME280;1102;49.718;11.902;2022-10-16T01:28:38;96224.84;;;12.92;100.00
2192;BME280;1102;49.718;11.902;2022-10-16T01:31:06;96181.47;;;12.69;100.00
2192;BME280;1102;49.718;11.902;2022-10-16T01:33:42;96201.59;;;12.70;100.00
2192;BME280;1102;49.718;11.902;2022-10-16T01:36:16;96219.19;;;12.78;100.00
2192;BME280;1102;49.718;11.902;2022-10-16T01:38:47;96220.66;;;12.76;100.00
2192;BME280;1102;49.718;11.902;2022-10-16T01:41:21;96212.28;;;12.73;100.00
2192;BME280;1102;49.718;11.902;2022-10-16T01:44:01;96192.31;;;12.64;100.00
2192;BME280;1102;49.718;11.902;2022-10-16T01:46:31;96221.59;;;12.83;100.00
2192;BME280;1102;49.718;11.902;2022-10-16T01:49:00;96189.84;;;12.71;100.00
2192;BME280;1102;49.718;11.902;2022-10-16T01:51:28;96185.91;;;12.65;100.00
2192;BME280;1102;49.718;11.902;2022-10-16T01:53:58;96220.91;;;12.86;100.00
2192;BME280;1102;49.718;11.902;2022-10-16T01:56:27;96230.00;;;12.85;100.00
2192;BME280;1102;49.718;11.902;2022-10-16T01:59:01;96231.53;;;12.86;100.00
2192;BME280;1102;49.718;11.902;2022-10-16T02:01:31;96237.53;;;12.83;100.00
2192;BME280;1102;49.718;11.902;2022-10-16T02:04:23;96231.00;;;12.81;100.00
2192;BME280;1102;49.718;11.902;2022-10-16T02:06:52;96067.28;;;11.71;100.00
2192;BME280;1102;49.718;11.902;2022-10-16T02:09:19;96198.59;;;12.56;100.00
2192;BME280;1102;49.718;11.902;2022-10-16T02:11:46;96155.00;;;12.25;100.00
2192;BME280;1102;49.718;11.902;2022-10-16T02:14:13;96202.94;;;12.64;100.00
2192;BME280;1102;49.718;11.902;2022-10-16T02:16:42;96224.41;;;12.75;100.00
2192;BME280;1102;49.718;11.902;2022-10-16T02:19:14;96194.72;;;12.53;100.00
2192;BME280;1102;49.718;11.902;2022-10-16T02:21:50;96208.59;;;12.62;100.00
2192;BME280;1102;49.718;11.902;2022-10-16T02:24:32;96230.06;;;12.73;100.00
2192;BME280;1102;49.718;11.902;2022-10-16T02:27:07;96228.09;;;12.70;100.00
2192;BME280;1102;49.718;11.902;2022-10-16T02:29:40;96239.16;;;12.72;100.00
2192;BME280;1102;49.718;11.902;2022-10-16T02:32:12;96253.69;;;12.78;100.00
2192;BME280;1102;49.718;11.902;2022-10-16T02:34:41;96206.44;;;12.52;100.00
2192;BME280;1102;49.718;11.902;2022-10-16T02:37:08;96245.81;;;12.66;100.00
2192;BME280;1102;49.718;11.902;2022-10-16T02:39:37;96218.00;;;12.44;100.00
2192;BME280;1102;49.718;11.902;2022-10-16T02:42:04;96212.16;;;12.54;100.00
2192;BME280;1102;49.718;11.902;2022-10-16T02:44:31;96222.63;;;12.63;100.00
2192;BME280;1102;49.718;11.902;2022-10-16T02:46:57;96238.09;;;12.61;100.00
2192;BME280;1102;49.718;11.902;2022-10-16T02:49:24;96228.00;;;12.51;100.00
2192;BME280;1102;49.718;11.902;2022-10-16T02:51:51;96234.06;;;12.51;100.00
2192;BME280;1102;49.718;11.902;2022-10-16T02:54:17;96228.06;;;12.54;100.00
2192;BME280;1102;49.718;11.902;2022-10-16T02:56:44;96225.25;;;12.47;100.00
2192;BME280;1102;49.718;11.902;2022-10-16T02:59:11;96221.41;;;12.45;100.00
2192;BME280;1102;49.718;11.902;2022-10-16T03:01:37;96244.31;;;12.53;100.00
2192;BME280;1102;49.718;11.902;2022-10-16T03:04:04;96228.47;;;12.40;100.00
2192;BME280;1102;49.718;11.902;2022-10-16T03:06:31;96234.91;;;12.55;100.00
2192;BME280;1102;49.718;11.902;2022-10-16T03:08:57;96264.78;;;12.68;100.00
2192;BME280;1102;49.718;11.902;2022-10-16T03:11:24;96192.81;;;12.22;100.00
2192;BME280;1102;49.718;11.902;2022-10-16T03:13:51;96222.88;;;12.42;100.00
2192;BME280;1102;49.718;11.902;2022-10-16T03:16:17;96262.25;;;12.71;100.00
2192;BME280;1102;49.718;11.902;2022-10-16T03:18:48;96206.84;;;12.38;100.00
2192;BME280;1102;49.718;11.902;2022-10-16T03:21:16;96229.53;;;12.52;100.00
2192;BME280;1102;49.718;11.902;2022-10-16T03:23:43;96229.78;;;12.47;100.00
2192;BME280;1102;49.718;11.902;2022-10-16T03:26:09;96202.22;;;12.20;100.00
2192;BME280;1102;49.718;11.902;2022-10-16T03:28:36;96244.75;;;12.55;100.00
2192;BME280;1102;49.718;11.902;2022-10-16T03:31:02;96233.56;;;12.46;100.00
2192;BME280;1102;49.718;11.902;2022-10-16T03:33:29;96265.81;;;12.63;100.00
2192;BME280;1102;49.718;11.902;2022-10-16T03:35:56;96271.31;;;12.70;100.00
2192;BME280;1102;49.718;11.902;2022-10-16T03:38:22;96185.19;;;12.21;100.00
2192;BME280;1102;49.718;11.902;2022-10-16T03:40:49;96256.06;;;12.67;100.00
2192;BME280;1102;49.718;11.902;2022-10-16T03:43:16;96215.56;;;12.39;100.00
2192;BME280;1102;49.718;11.902;2022-10-16T03:45:42;96275.25;;;12.77;100.00
2192;BME280;1102;49.718;11.902;2022-10-16T03:48:09;96190.84;;;12.19;100.00
2192;BME280;1102;49.718;11.902;2022-10-16T03:50:35;96207.69;;;12.27;100.00
2192;BME280;1102;49.718;11.902;2022-10-16T03:53:03;96261.13;;;12.57;100.00
2192;BME280;1102;49.718;11.902;2022-10-16T03:55:30;96254.84;;;12.49;100.00
2192;BME280;1102;49.718;11.902;2022-10-16T03:57:56;96276.44;;;12.63;100.00
2192;BME280;1102;49.718;11.902;2022-10-16T04:00:23;96223.78;;;12.34;100.00
2192;BME280;1102;49.718;11.902;2022-10-16T04:02:49;96257.88;;;12.63;100.00
2192;BME280;1102;49.718;11.902;2022-10-16T04:05:16;96244.31;;;12.53;100.00
2192;BME280;1102;49.718;11.902;2022-10-16T04:07:43;96274.81;;;12.75;100.00
2192;BME280;1102;49.718;11.902;2022-10-16T04:10:09;96246.75;;;12.58;100.00
2192;BME280;1102;49.718;11.902;2022-10-16T04:12:36;96224.06;;;12.45;100.00
2192;BME280;1102;49.718;11.902;2022-10-16T04:15:03;96281.25;;;12.73;100.00
2192;BME280;1102;49.718;11.902;2022-10-16T04:17:29;96246.38;;;12.43;100.00
2192;BME280;1102;49.718;11.902;2022-10-16T04:19:56;96247.50;;;12.42;100.00
2192;BME280;1102;49.718;11.902;2022-10-16T04:22:23;96268.31;;;12.56;100.00
2192;BME280;1102;49.718;11.902;2022-10-16T04:24:49;96297.25;;;12.77;100.00
2192;BME280;1102;49.718;11.902;2022-10-16T04:27:16;96260.66;;;12.55;100.00
2192;BME280;1102;49.718;11.902;2022-10-16T04:29:43;96260.25;;;12.53;100.00
2192;BME280;1102;49.718;11.902;2022-10-16T04:32:09;96299.06;;;12.73;100.00
2192;BME280;1102;49.718;11.902;2022-10-16T04:34:36;96297.84;;;12.70;100.00
2192;BME280;1102;49.718;11.902;2022-10-16T04:37:04;96268.97;;;12.53;100.00
2192;BME280;1102;49.718;11.902;2022-10-16T04:39:31;96284.41;;;12.63;100.00
2192;BME280;1102;49.718;11.902;2022-10-16T04:41:57;96275.31;;;12.64;100.00
2192;BME280;1102;49.718;11.902;2022-10-16T04:44:24;96283.28;;;12.64;100.00
2192;BME280;1102;49.718;11.902;2022-10-16T04:46:51;96242.44;;;12.37;100.00
2192;BME280;1102;49.718;11.902;2022-10-16T04:49:17;96289.78;;;12.67;100.00
2192;BME280;1102;49.718;11.902;2022-10-16T04:51:44;96297.84;;;12.70;100.00
2192;BME280;1102;49.718;11.902;2022-10-16T04:54:11;96284.44;;;12.51;100.00
2192;BME280;1102;49.718;11.902;2022-10-16T04:56:37;96286.00;;;12.52;100.00
2192;BME280;1102;49.718;11.902;2022-10-16T04:59:16;96283.69;;;12.51;100.00
2192;BME280;1102;49.718;11.902;2022-10-16T05:01:43;96313.84;;;12.74;100.00
2192;BME280;1102;49.718;11.902;2022-10-16T05:04:10;96306.94;;;12.69;100.00
2192;BME280;1102;49.718;11.902;2022-10-16T05:06:38;96314.03;;;12.81;100.00
2192;BME280;1102;49.718;11.902;2022-10-16T05:09:05;96314.38;;;12.80;100.00
2192;BME280;1102;49.718;11.902;2022-10-16T05:11:32;96319.09;;;12.86;100.00
2192;BME280;1102;49.718;11.902;2022-10-16T05:13:59;96312.25;;;12.85;100.00
2192;BME280;1102;49.718;11.902;2022-10-16T05:16:26;96349.16;;;13.06;100.00
2192;BME280;1102;49.718;11.902;2022-10-16T05:18:53;96335.53;;;13.08;100.00
2192;BME280;1102;49.718;11.902;2022-10-16T05:21:29;96306.59;;;12.87;100.00
2192;BME280;1102;49.718;11.902;2022-10-16T05:23:56;96330.50;;;13.02;100.00
2192;BME280;1102;49.718;11.902;2022-10-16T05:26:23;96298.63;;;12.87;100.00
2192;BME280;1102;49.718;11.902;2022-10-16T05:28:50;96318.50;;;12.93;100.00
2192;BME280;1102;49.718;11.902;2022-10-16T05:31:16;96342.38;;;13.09;100.00
2192;BME280;1102;49.718;11.902;2022-10-16T05:33:43;96300.25;;;12.76;100.00
2192;BME280;1102;49.718;11.902;2022-10-16T05:36:10;96301.88;;;12.80;100.00
2192;BME280;1102;49.718;11.902;2022-10-16T05:38:37;96311.72;;;12.80;100.00
2192;BME280;1102;49.718;11.902;2022-10-16T05:41:04;96325.25;;;12.90;100.00
2192;BME280;1102;49.718;11.902;2022-10-16T05:43:31;96282.00;;;12.58;100.00
2192;BME280;1102;49.718;11.902;2022-10-16T05:46:03;96331.88;;;12.96;100.00
2192;BME280;1102;49.718;11.902;2022-10-16T05:48:31;96302.47;;;12.73;100.00
2192;BME280;1102;49.718;11.902;2022-10-16T05:51:10;96319.53;;;12.88;100.00
2192;BME280;1102;49.718;11.902;2022-10-16T05:53:38;96330.13;;;12.88;100.00
2192;BME280;1102;49.718;11.902;2022-10-16T05:56:06;96301.28;;;12.71;100.00
2192;BME280;1102;49.718;11.902;2022-10-16T05:58:35;96306.47;;;12.67;100.00
2192;BME280;1102;49.718;11.902;2022-10-16T06:01:05;96275.91;;;12.42;100.00
2192;BME280;1102;49.718;11.902;2022-10-16T06:03:32;96324.97;;;12.80;100.00
2192;BME280;1102;49.718;11.902;2022-10-16T06:06:07;96337.38;;;12.76;100.00
2192;BME280;1102;49.718;11.902;2022-10-16T06:08:38;96338.00;;;12.69;100.00
2192;BME280;1102;49.718;11.902;2022-10-16T06:11:07;96345.06;;;12.65;100.00
2192;BME280;1102;49.718;11.902;2022-10-16T06:13:34;96331.00;;;12.49;100.00
2192;BME280;1102;49.718;11.902;2022-10-16T06:16:02;96321.50;;;12.48;100.00
2192;BME280;1102;49.718;11.902;2022-10-16T06:18:29;96346.94;;;12.64;100.00
2192;BME280;1102;49.718;11.902;2022-10-16T06:20:56;96358.31;;;12.65;100.00
2192;BME280;1102;49.718;11.902;2022-10-16T06:23:23;96369.81;;;12.69;100.00
2192;BME280;1102;49.718;11.902;2022-10-16T06:25:50;96262.38;;;11.91;100.00
2192;BME280;1102;49.718;11.902;2022-10-16T06:28:18;96350.75;;;12.51;100.00
2192;BME280;1102;49.718;11.902;2022-10-16T06:30:44;96379.06;;;12.75;100.00
2192;BME280;1102;49.718;11.902;2022-10-16T06:33:12;96303.56;;;12.29;100.00
2192;BME280;1102;49.718;11.902;2022-10-16T06:35:39;96369.84;;;12.85;100.00
2192;BME280;1102;49.718;11.902;2022-10-16T06:38:05;96368.97;;;12.81;100.00
2192;BME280;1102;49.718;11.902;2022-10-16T06:40:32;96357.84;;;12.75;100.00
2192;BME280;1102;49.718;11.902;2022-10-16T06:42:59;96363.66;;;12.81;100.00
2192;BME280;1102;49.718;11.902;2022-10-16T06:45:25;96362.25;;;12.83;100.00
2192;BME280;1102;49.718;11.902;2022-10-16T06:47:52;96379.03;;;13.03;100.00
2192;BME280;1102;49.718;11.902;2022-10-16T06:50:19;96390.63;;;13.11;100.00
2192;BME280;1102;49.718;11.902;2022-10-16T06:52:45;96310.66;;;12.68;100.00
2192;BME280;1102;49.718;11.902;2022-10-16T06:55:12;96335.25;;;12.81;100.00
2192;BME280;1102;49.718;11.902;2022-10-16T06:57:39;96404.03;;;13.30;100.00
2192;BME280;1102;49.718;11.902;2022-10-16T07:00:06;96388.09;;;13.30;100.00
2192;BME280;1102;49.718;11.902;2022-10-16T07:02:33;96390.59;;;13.23;100.00
2192;BME280;1102;49.718;11.902;2022-10-16T07:04:59;96413.88;;;13.29;100.00
2192;BME280;1102;49.718;11.902;2022-10-16T07:07:26;96428.34;;;13.32;100.00
2192;BME280;1102;49.718;11.902;2022-10-16T07:09:53;96418.84;;;13.31;100.00
2192;BME280;1102;49.718;11.902;2022-10-16T07:12:19;96431.97;;;13.24;100.00
2192;BME280;1102;49.718;11.902;2022-10-16T07:14:46;96462.31;;;13.39;100.00
2192;BME280;1102;49.718;11.902;2022-10-16T07:17:12;96422.66;;;13.18;100.00
2192;BME280;1102;49.718;11.902;2022-10-16T07:19:39;96456.50;;;13.49;100.00
2192;BME280;1102;49.718;11.902;2022-10-16T07:22:06;96409.22;;;13.11;100.00
2192;BME280;1102;49.718;11.902;2022-10-16T07:24:33;96446.53;;;13.46;100.00
2192;BME280;1102;49.718;11.902;2022-10-16T07:26:59;96453.66;;;13.42;100.00
2192;BME280;1102;49.718;11.902;2022-10-16T07:29:26;96428.22;;;13.13;100.00
2192;BME280;1102;49.718;11.902;2022-10-16T07:31:53;96375.59;;;12.87;100.00
2192;BME280;1102;49.718;11.902;2022-10-16T07:34:20;96287.13;;;12.23;100.00
2192;BME280;1102;49.718;11.902;2022-10-16T07:36:49;96443.84;;;13.30;100.00
2192;BME280;1102;49.718;11.902;2022-10-16T07:39:17;96455.09;;;13.39;100.00
2192;BME280;1102;49.718;11.902;2022-10-16T07:41:44;96398.34;;;13.16;100.00
2192;BME280;1102;49.718;11.902;2022-10-16T07:44:10;96454.63;;;13.49;100.00
2192;BME280;1102;49.718;11.902;2022-10-16T07:46:37;96467.56;;;13.51;100.00
2192;BME280;1102;49.718;11.902;2022-10-16T07:49:04;96463.94;;;13.43;100.00
2192;BME280;1102;49.718;11.902;2022-10-16T07:51:31;96393.34;;;12.98;100.00
2192;BME280;1102;49.718;11.902;2022-10-16T07:53:57;96472.44;;;13.49;100.00
2192;BME280;1102;49.718;11.902;2022-10-16T07:56:25;96449.38;;;13.37;100.00
2192;BME280;1102;49.718;11.902;2022-10-16T07:58:52;96490.09;;;13.57;100.00
2192;BME280;1102;49.718;11.902;2022-10-16T08:01:19;96452.16;;;13.28;100.00
2192;BME280;1102;49.718;11.902;2022-10-16T08:03:49;96467.63;;;13.39;100.00
2192;BME280;1102;49.718;11.902;2022-10-16T08:06:17;96468.91;;;13.45;100.00
2192;BME280;1102;49.718;11.902;2022-10-16T08:08:50;96448.81;;;13.31;100.00
2192;BME280;1102;49.718;11.902;2022-10-16T08:11:17;96460.22;;;13.32;100.00
2192;BME280;1102;49.718;11.902;2022-10-16T08:13:43;96514.13;;;13.76;100.00
2192;BME280;1102;49.718;11.902;2022-10-16T08:16:10;96486.94;;;13.67;100.00
2192;BME280;1102;49.718;11.902;2022-10-16T08:18:39;96484.00;;;13.72;100.00
2192;BME280;1102;49.718;11.902;2022-10-16T08:21:08;96424.00;;;13.40;100.00
2192;BME280;1102;49.718;11.902;2022-10-16T08:23:43;96430.59;;;13.46;100.00
2192;BME280;1102;49.718;11.902;2022-10-16T08:26:11;96513.09;;;14.12;100.00
2192;BME280;1102;49.718;11.902;2022-10-16T08:28:39;96522.78;;;14.05;100.00
2192;BME280;1102;49.718;11.902;2022-10-16T08:31:12;96516.69;;;14.04;100.00
2192;BME280;1102;49.718;11.902;2022-10-16T08:33:40;96514.19;;;14.11;100.00
2192;BME280;1102;49.718;11.902;2022-10-16T08:36:09;96516.00;;;14.23;100.00
2192;BME280;1102;49.718;11.902;2022-10-16T08:38:37;96474.66;;;14.10;100.00
2192;BME280;1102;49.718;11.902;2022-10-16T08:41:43;96452.13;;;14.04;100.00
2192;BME280;1102;49.718;11.902;2022-10-16T08:44:34;96520.53;;;14.54;100.00
2192;BME280;1102;49.718;11.902;2022-10-16T08:50:10;96487.00;;;14.34;100.00
2192;BME280;1102;49.718;11.902;2022-10-16T08:52:43;96497.97;;;14.48;100.00
2192;BME280;1102;49.718;11.902;2022-10-16T08:55:46;96542.88;;;14.69;100.00
2192;BME280;1102;49.718;11.902;2022-10-16T08:58:18;96523.41;;;14.65;100.00
2192;BME280;1102;49.718;11.902;2022-10-16T09:00:49;96489.38;;;14.39;100.00
2192;BME280;1102;49.718;11.902;2022-10-16T09:08:51;96560.97;;;15.14;100.00
2192;BME280;1102;49.718;11.902;2022-10-16T09:11:49;96542.06;;;15.00;100.00
2192;BME280;1102;49.718;11.902;2022-10-16T09:19:45;96505.03;;;14.95;100.00
2192;BME280;1102;49.718;11.902;2022-10-16T09:22:15;96522.56;;;15.15;100.00
2192;BME280;1102;49.718;11.902;2022-10-16T09:24:42;96586.50;;;15.73;100.00
2192;BME280;1102;49.718;11.902;2022-10-16T09:27:13;96513.16;;;15.21;100.00
2192;BME280;1102;49.718;11.902;2022-10-16T09:29:41;96531.16;;;15.47;100.00
2192;BME280;1102;49.718;11.902;2022-10-16T09:32:12;96567.50;;;15.75;100.00
2192;BME280;1102;49.718;11.902;2022-10-16T09:34:47;96556.03;;;15.93;100.00
2192;BME280;1102;49.718;11.902;2022-10-16T09:37:21;96597.66;;;16.44;100.00
2192;BME280;1102;49.718;11.902;2022-10-16T09:39:52;96560.50;;;16.32;100.00
2192;BME280;1102;49.718;11.902;2022-10-16T09:42:22;96560.91;;;16.34;100.00
2192;BME280;1102;49.718;11.902;2022-10-16T09:44:51;96608.63;;;16.62;100.00
2192;BME280;1102;49.718;11.902;2022-10-16T09:47:23;96472.53;;;15.89;100.00
2192;BME280;1102;49.718;11.902;2022-10-16T09:49:55;96601.63;;;16.76;100.00
2192;BME280;1102;49.718;11.902;2022-10-16T09:52:24;96584.28;;;16.67;100.00
2192;BME280;1102;49.718;11.902;2022-10-16T09:54:56;96511.88;;;16.19;100.00
2192;BME280;1102;49.718;11.902;2022-10-16T09:57:24;96574.28;;;16.60;100.00
2192;BME280;1102;49.718;11.902;2022-10-16T09:59:53;96515.56;;;16.37;100.00
2192;BME280;1102;49.718;11.902;2022-10-16T10:02:29;96532.13;;;16.23;100.00
2192;BME280;1102;49.718;11.902;2022-10-16T10:04:57;96604.53;;;16.94;100.00
2192;BME280;1102;49.718;11.902;2022-10-16T10:07:26;96603.84;;;16.71;100.00
2192;BME280;1102;49.718;11.902;2022-10-16T10:09:56;96608.28;;;16.90;100.00
2192;BME280;1102;49.718;11.902;2022-10-16T10:12:28;96624.06;;;17.25;100.00
2192;BME280;1102;49.718;11.902;2022-10-16T10:15:04;96560.19;;;16.63;100.00
2192;BME280;1102;49.718;11.902;2022-10-16T10:17:31;96623.88;;;17.10;100.00
2192;BME280;1102;49.718;11.902;2022-10-16T10:20:00;96557.53;;;16.63;100.00
2192;BME280;1102;49.718;11.902;2022-10-16T10:22:41;96624.31;;;17.16;100.00
2192;BME280;1102;49.718;11.902;2022-10-16T10:30:26;96621.38;;;17.25;100.00
2192;BME280;1102;49.718;11.902;2022-10-16T10:58:04;96613.94;;;18.05;100.00
2192;BME280;1102;49.718;11.902;2022-10-16T11:03:27;96623.75;;;18.75;100.00
2192;BME280;1102;49.718;11.902;2022-10-16T11:06:07;96624.91;;;18.77;100.00
2192;BME280;1102;49.718;11.902;2022-10-16T11:08:40;96580.72;;;18.57;100.00
2192;BME280;1102;49.718;11.902;2022-10-16T11:11:31;96632.63;;;18.86;100.00
2192;BME280;1102;49.718;11.902;2022-10-16T11:14:20;96601.53;;;18.74;100.00
2192;BME280;1102;49.718;11.902;2022-10-16T11:17:02;96622.44;;;19.09;100.00
2192;BME280;1102;49.718;11.902;2022-10-16T11:22:51;96623.91;;;19.00;100.00
2192;BME280;1102;49.718;11.902;2022-10-16T11:25:31;96618.94;;;19.02;100.00
2192;BME280;1102;49.718;11.902;2022-10-16T11:31:08;96607.66;;;18.75;100.00
2192;BME280;1102;49.718;11.902;2022-10-16T11:33:41;96615.31;;;18.73;100.00
2192;BME280;1102;49.718;11.902;2022-10-16T11:41:26;96625.91;;;18.62;100.00
2192;BME280;1102;49.718;11.902;2022-10-16T11:46:48;96630.09;;;18.59;100.00
2192;BME280;1102;49.718;11.902;2022-10-16T11:49:36;96629.34;;;18.63;100.00
2192;BME280;1102;49.718;11.902;2022-10-16T11:52:23;96631.03;;;18.74;100.00
2192;BME280;1102;49.718;11.902;2022-10-16T11:55:04;96631.81;;;18.78;100.00
2192;BME280;1102;49.718;11.902;2022-10-16T11:57:40;96630.38;;;18.95;100.00
2192;BME280;1102;49.718;11.902;2022-10-16T12:08:27;96639.28;;;18.58;100.00
2192;BME280;1102;49.718;11.902;2022-10-16T12:11:07;96609.34;;;18.49;100.00
2192;BME280;1102;49.718;11.902;2022-10-16T12:13:39;96639.81;;;18.71;100.00
2192;BME280;1102;49.718;11.902;2022-10-16T12:18:41;96642.09;;;18.73;100.00
2192;BME280;1102;49.718;11.902;2022-10-16T12:21:09;96633.09;;;18.51;100.00
2192;BME280;1102;49.718;11.902;2022-10-16T12:23:46;96606.59;;;18.42;100.00
2192;BME280;1102;49.718;11.902;2022-10-16T12:26:14;96592.13;;;18.47;100.00
2192;BME280;1102;49.718;11.902;2022-10-16T12:28:50;96575.88;;;18.25;100.00
2192;BME280;1102;49.718;11.902;2022-10-16T12:31:18;96629.41;;;18.66;100.00
2192;BME280;1102;49.718;11.902;2022-10-16T12:34:20;96614.06;;;18.63;100.00
2192;BME280;1102;49.718;11.902;2022-10-16T12:36:48;96613.88;;;18.42;100.00
2192;BME280;1102;49.718;11.902;2022-10-16T12:39:23;96576.69;;;18.77;100.00
2192;BME280;1102;49.718;11.902;2022-10-16T12:42:03;96653.22;;;20.34;100.00
2192;BME280;1102;49.718;11.902;2022-10-16T12:44:35;96658.25;;;21.04;100.00
2192;BME280;1102;49.718;11.902;2022-10-16T12:47:02;96662.84;;;21.35;100.00
2192;BME280;1102;49.718;11.902;2022-10-16T12:49:32;96589.53;;;20.35;100.00
2192;BME280;1102;49.718;11.902;2022-10-16T12:52:02;96654.38;;;21.22;100.00
2192;BME280;1102;49.718;11.902;2022-10-16T12:54:38;96656.59;;;21.70;100.00
2192;BME280;1102;49.718;11.902;2022-10-16T13:03:03;96634.97;;;21.92;100.00
2192;BME280;1102;49.718;11.902;2022-10-16T13:22:33;96682.34;;;24.43;100.00
2192;BME280;1102;49.718;11.902;2022-10-16T13:28:08;96697.41;;;24.95;100.00
2192;BME280;1102;49.718;11.902;2022-10-16T13:30:51;96688.41;;;24.78;98.35
2192;BME280;1102;49.718;11.902;2022-10-16T13:33:39;96665.31;;;23.14;100.00
2192;BME280;1102;49.718;11.902;2022-10-16T13:36:19;96664.97;;;24.14;100.00
2192;BME280;1102;49.718;11.902;2022-10-16T13:38:46;96690.38;;;24.51;98.52
2192;BME280;1102;49.718;11.902;2022-10-16T13:41:16;96620.88;;;24.21;100.00
2192;BME280;1102;49.718;11.902;2022-10-16T13:43:47;96692.88;;;24.38;96.68
2192;BME280;1102;49.718;11.902;2022-10-16T13:46:16;96680.25;;;23.22;99.61
2192;BME280;1102;49.718;11.902;2022-10-16T13:48:44;96678.97;;;22.37;100.00
2192;BME280;1102;49.718;11.902;2022-10-16T13:51:15;96686.41;;;23.64;100.00
2192;BME280;1102;49.718;11.902;2022-10-16T13:53:44;96679.59;;;23.86;100.00
2192;BME280;1102;49.718;11.902;2022-10-16T13:56:13;96654.03;;;22.85;100.00
2192;BME280;1102;49.718;11.902;2022-10-16T13:58:41;96637.91;;;22.74;100.00
2192;BME280;1102;49.718;11.902;2022-10-16T14:01:20;96537.78;;;22.72;100.00
2192;BME280;1102;49.718;11.902;2022-10-16T14:04:04;96672.06;;;24.04;100.00
2192;BME280;1102;49.718;11.902;2022-10-16T14:06:32;96691.19;;;24.74;96.75
2192;BME280;1102;49.718;11.902;2022-10-16T14:11:52;96691.81;;;24.32;94.66
2192;BME280;1102;49.718;11.902;2022-10-16T14:14:20;96686.28;;;24.08;94.38
2192;BME280;1102;49.718;11.902;2022-10-16T14:16:48;96658.34;;;23.57;94.07
2192;BME280;1102;49.718;11.902;2022-10-16T14:21:52;96701.22;;;23.86;93.41
2192;BME280;1102;49.718;11.902;2022-10-16T14:24:27;96539.66;;;22.75;92.04
2192;BME280;1102;49.718;11.902;2022-10-16T14:26:54;96598.81;;;22.96;92.82
2192;BME280;1102;49.718;11.902;2022-10-16T14:29:24;96617.88;;;23.50;93.33
2192;BME280;1102;49.718;11.902;2022-10-16T14:32:03;96716.00;;;24.93;89.93
2192;BME280;1102;49.718;11.902;2022-10-16T14:34:35;96716.84;;;24.63;88.70
2192;BME280;1102;49.718;11.902;2022-10-16T14:37:19;96689.31;;;24.44;88.20
2192;BME280;1102;49.718;11.902;2022-10-16T14:39:54;96695.84;;;24.47;89.83
2192;BME280;1102;49.718;11.902;2022-10-16T14:42:23;96694.34;;;24.93;90.49
2192;BME280;1102;49.718;11.902;2022-10-16T14:44:53;96617.22;;;24.85;86.88
2192;BME280;1102;49.718;11.902;2022-10-16T14:47:23;96721.31;;;25.47;84.65
2192;BME280;1102;49.718;11.902;2022-10-16T14:49:54;96714.13;;;24.90;86.03
2192;BME280;1102;49.718;11.902;2022-10-16T14:52:22;96625.72;;;24.60;84.32
2192;BME280;1102;49.718;11.902;2022-10-16T14:54:50;96705.81;;;25.04;82.66
2192;BME280;1102;49.718;11.902;2022-10-16T14:57:19;96716.41;;;24.91;83.80
2192;BME280;1102;49.718;11.902;2022-10-16T14:59:48;96702.34;;;24.50;84.30
2192;BME280;1102;49.718;11.902;2022-10-16T15:02:23;96724.28;;;24.82;84.12
2192;BME280;1102;49.718;11.902;2022-10-16T15:04:51;96710.88;;;24.17;85.56
2192;BME280;1102;49.718;11.902;2022-10-16T15:07:19;96684.13;;;23.62;86.07
2192;BME280;1102;49.718;11.902;2022-10-16T15:09:45;96719.66;;;22.57;89.63
2192;BME280;1102;49.718;11.902;2022-10-16T15:12:15;96715.66;;;22.20;91.75
2192;BME280;1102;49.718;11.902;2022-10-16T15:14:43;96718.50;;;21.77;97.07